Time;durP1;ratioP1;P1;durP2;ratioP2;P2;SDS_P1;SDS_P2;PMS_P1;PMS_P2;Temp;Humidity;BMP_temperature;BMP_pressure;BME280_temperature;BME280_humidity;BME280_pressure;Samples;Min_cycle;Max_cycle;Signal;HPM_P1;HPM_P2
2022/03/05 00:01:42;;;;;;;6.90;6.50;;;16.80;62.00;;;;;;5035272;28;43937;-77
2022/03/05 00:04:12;;;;;;;6.77;6.40;;;16.80;62.30;;;;;;5057890;28;43977;-77
2022/03/05 00:06:40;;;;;;;6.87;6.47;;;16.90;62.40;;;;;;5048199;28;43774;-77
2022/03/05 00:09:08;;;;;;;6.83;6.43;;;17.00;61.90;;;;;;5015558;28;44007;-78
2022/03/05 00:11:39;;;;;;;6.63;6.33;;;17.10;61.50;;;;;;5048489;28;45138;-75
2022/03/05 00:14:08;;;;;;;6.10;5.80;;;17.10;61.40;;;;;;5031853;28;44078;-78
2022/03/05 00:16:37;;;;;;;6.77;6.47;;;17.10;61.30;;;;;;5032179;28;43967;-78
2022/03/05 00:19:05;;;;;;;6.80;6.40;;;17.00;61.40;;;;;;5059867;28;44023;-78
2022/03/05 00:21:34;;;;;;;6.30;6.00;;;16.90;61.50;;;;;;5035108;28;44077;-78
2022/03/05 00:24:03;;;;;;;6.77;6.37;;;16.90;61.80;;;;;;5030529;28;43875;-78
2022/03/05 00:26:32;;;;;;;6.63;6.33;;;16.80;61.80;;;;;;5049943;28;43383;-78
2022/03/05 00:29:01;;;;;;;6.67;6.30;;;16.80;62.00;;;;;;5087107;28;44029;-78
2022/03/05 00:31:30;;;;;;;7.10;6.73;;;16.80;62.40;;;;;;5067563;28;43962;-78
2022/03/05 00:33:58;;;;;;;6.93;6.53;;;16.80;62.10;;;;;;5051860;28;43518;-78
2022/03/05 00:36:27;;;;;;;6.73;6.33;;;16.70;62.20;;;;;;5049928;28;44068;-78
2022/03/05 00:38:56;;;;;;;6.43;6.13;;;16.80;62.30;;;;;;5051893;28;43946;-78
2022/03/05 00:41:24;;;;;;;7.20;6.80;;;16.70;62.30;;;;;;5055396;28;44000;-76
2022/03/05 00:43:53;;;;;;;7.40;7.00;;;16.70;62.50;;;;;;5031995;28;44588;-76
2022/03/05 00:46:23;;;;;;;6.37;6.03;;;16.80;62.40;;;;;;5032572;28;43470;-77
2022/03/05 00:48:52;;;;;;;7.40;7.00;;;17.00;61.90;;;;;;5068055;28;43914;-77
2022/03/05 00:51:20;;;;;;;7.43;7.03;;;17.20;61.50;;;;;;5031227;28;43922;-77
2022/03/05 00:53:49;;;;;;;7.10;6.70;;;17.40;61.10;;;;;;5018937;28;43961;-76
2022/03/05 00:56:18;;;;;;;7.40;7.00;;;17.40;60.80;;;;;;5018406;28;44018;-77
2022/03/05 00:58:47;;;;;;;6.57;6.17;;;17.40;60.70;;;;;;5034422;28;43938;-77
2022/03/05 01:01:15;;;;;;;6.40;6.10;;;17.30;60.70;;;;;;5043180;28;44075;-77
2022/03/05 01:03:46;;;;;;;6.80;6.40;;;17.20;61.00;;;;;;5024920;28;43899;-77
2022/03/05 01:06:14;;;;;;;6.83;6.43;;;17.10;61.20;;;;;;5044403;28;43960;-78
2022/03/05 01:08:42;;;;;;;6.47;6.10;;;17.00;61.30;;;;;;5050651;28;44179;-77
2022/03/05 01:11:15;;;;;;;7.00;6.67;;;16.90;61.50;;;;;;5017659;28;44943;-77
2022/03/05 01:13:44;;;;;;;6.80;6.50;;;16.90;61.70;;;;;;5019179;28;43931;-78
2022/03/05 01:16:13;;;;;;;6.50;6.20;;;16.80;61.80;;;;;;5050739;28;44090;-77
2022/03/05 01:18:42;;;;;;;7.23;6.80;;;16.80;61.90;;;;;;5051111;28;44048;-77
2022/03/05 01:21:13;;;;;;;7.20;6.80;;;16.80;62.10;;;;;;5050635;28;45619;-77
2022/03/05 01:23:42;;;;;;;7.37;6.97;;;16.80;62.30;;;;;;5050462;28;44506;-77
2022/03/05 01:26:10;;;;;;;7.30;6.90;;;16.90;62.00;;;;;;5068725;28;43954;-77
2022/03/05 01:28:39;;;;;;;7.37;6.97;;;17.10;61.70;;;;;;5035269;28;43450;-77
2022/03/05 01:31:08;;;;;;;5.97;5.67;;;17.10;61.40;;;;;;5033583;28;44026;-77
2022/03/05 01:33:36;;;;;;;6.70;6.40;;;17.10;61.30;;;;;;5050343;28;43713;-77
2022/03/05 01:36:05;;;;;;;6.87;6.50;;;17.00;61.30;;;;;;5054911;28;44123;-76
2022/03/05 01:38:35;;;;;;;6.80;6.50;;;16.90;61.50;;;;;;5046726;28;43456;-77
2022/03/05 01:41:03;;;;;;;6.93;6.63;;;16.90;61.60;;;;;;5050920;28;45261;-77
2022/03/05 01:43:31;;;;;;;6.53;6.23;;;16.80;61.70;;;;;;5050288;28;43377;-78
2022/03/05 01:45:59;;;;;;;7.03;6.67;;;16.80;61.90;;;;;;5034447;28;44275;-77
2022/03/05 01:48:28;;;;;;;6.57;6.20;;;16.80;62.00;;;;;;5044064;28;44142;-78
2022/03/05 01:50:56;;;;;;;7.23;6.83;;;16.80;62.10;;;;;;5020122;28;46297;-77
2022/03/05 01:53:25;;;;;;;6.73;6.40;;;16.70;62.00;;;;;;5033726;28;44163;-77
2022/03/05 01:55:54;;;;;;;6.77;6.47;;;16.70;62.10;;;;;;5033825;28;43991;-78
2022/03/05 01:58:23;;;;;;;6.43;6.13;;;16.70;62.90;;;;;;5051091;28;43843;-77
2022/03/05 02:00:52;;;;;;;7.30;6.90;;;16.70;62.50;;;;;;5020146;28;44323;-77
2022/03/05 02:03:20;;;;;;;7.07;6.60;;;16.80;62.40;;;;;;5019444;28;44374;-77
2022/03/05 02:05:49;;;;;;;6.80;6.50;;;16.90;61.90;;;;;;5056859;28;43900;-77
2022/03/05 02:08:19;;;;;;;7.13;6.70;;;17.10;61.60;;;;;;5019026;28;44064;-76
2022/03/05 02:10:47;;;;;;;6.70;6.37;;;17.30;61.00;;;;;;5053453;28;43926;-76
2022/03/05 02:13:17;;;;;;;7.20;6.80;;;17.40;60.70;;;;;;5036540;28;43964;-76
2022/03/05 02:15:45;;;;;;;6.67;6.37;;;17.40;60.50;;;;;;5053751;28;44060;-76
2022/03/05 02:18:14;;;;;;;6.30;6.00;;;17.30;60.50;;;;;;5044045;28;44078;-76
2022/03/05 02:20:44;;;;;;;6.20;5.90;;;17.20;60.70;;;;;;5071493;28;44005;-76
2022/03/05 02:23:13;;;;;;;6.57;6.20;;;17.10;61.00;;;;;;5070340;28;43590;-76
2022/03/05 02:25:51;;;;;;;6.77;6.37;;;17.00;61.20;;;;;;5036687;28;43939;-76
2022/03/05 02:28:20;;;;;;;6.60;6.30;;;16.90;61.30;;;;;;5070554;28;43476;-76
2022/03/05 02:30:48;;;;;;;6.63;6.30;;;16.90;61.50;;;;;;5037667;28;45482;-77
2022/03/05 02:33:17;;;;;;;6.63;6.30;;;16.90;61.70;;;;;;5070453;28;44134;-77
2022/03/05 02:35:48;;;;;;;7.00;6.60;;;16.80;61.70;;;;;;5038185;28;43436;-77
2022/03/05 02:38:18;;;;;;;6.63;6.33;;;16.80;61.90;;;;;;5070583;28;44289;-77
2022/03/05 02:40:47;;;;;;;6.90;6.50;;;16.80;62.20;;;;;;5070538;28;45322;-77
2022/03/05 02:43:16;;;;;;;6.97;6.57;;;16.90;62.10;;;;;;5054182;28;44019;-77
2022/03/05 02:45:44;;;;;;;7.00;6.60;;;17.00;61.60;;;;;;5070349;28;43932;-77
2022/03/05 02:48:14;;;;;;;6.60;6.20;;;17.00;61.20;;;;;;5070646;28;44036;-77
2022/03/05 02:50:43;;;;;;;6.67;6.37;;;17.00;61.20;;;;;;5053631;28;45073;-77
2022/03/05 02:53:13;;;;;;;6.63;6.27;;;17.00;61.30;;;;;;5054401;28;43947;-77
2022/03/05 02:55:42;;;;;;;6.50;6.20;;;16.90;61.30;;;;;;5069063;28;44008;-77
2022/03/05 02:58:10;;;;;;;6.53;6.13;;;16.90;61.60;;;;;;5068591;28;43878;-77
2022/03/05 03:00:38;;;;;;;6.63;6.33;;;16.90;61.70;;;;;;5018031;28;45426;-77
2022/03/05 03:03:08;;;;;;;6.47;6.17;;;16.80;61.90;;;;;;5070441;28;43367;-77
2022/03/05 03:05:37;;;;;;;6.37;6.07;;;16.80;62.00;;;;;;5053755;28;44032;-77
2022/03/05 03:08:06;;;;;;;6.27;5.97;;;16.70;62.60;;;;;;5070931;28;44193;-77
2022/03/05 03:10:36;;;;;;;7.03;6.63;;;16.70;62.00;;;;;;5052816;28;43669;-77
2022/03/05 03:13:05;;;;;;;6.93;6.53;;;16.70;62.10;;;;;;5068278;28;44014;-77
2022/03/05 03:15:34;;;;;;;6.17;5.87;;;16.70;62.10;;;;;;5068757;28;43415;-77
2022/03/05 03:18:04;;;;;;;7.13;6.73;;;16.70;62.30;;;;;;5069307;28;43996;-77
2022/03/05 03:20:33;;;;;;;7.00;6.60;;;16.70;62.40;;;;;;5068230;28;44236;-77
2022/03/05 03:23:02;;;;;;;6.23;5.93;;;16.90;62.10;;;;;;5035687;28;44025;-77
2022/03/05 03:25:32;;;;;;;7.27;6.87;;;17.10;61.50;;;;;;5045142;28;44027;-77
2022/03/05 03:28:05;;;;;;;6.70;6.40;;;17.30;61.00;;;;;;5069751;28;44188;-77
2022/03/05 03:30:34;;;;;;;6.87;6.47;;;17.40;61.30;;;;;;5067749;28;43934;-77
2022/03/05 03:33:04;;;;;;;6.10;5.80;;;17.40;60.30;;;;;;5068712;28;43951;-78
2022/03/05 03:35:33;;;;;;;5.93;5.63;;;17.30;60.30;;;;;;5067996;28;43992;-77
2022/03/05 03:38:02;;;;;;;6.40;6.10;;;17.20;60.50;;;;;;5068334;28;44064;-77
2022/03/05 03:40:30;;;;;;;6.57;6.17;;;17.10;60.70;;;;;;5066111;28;44566;-77
2022/03/05 03:42:59;;;;;;;6.53;6.20;;;17.00;61.00;;;;;;5052381;28;43921;-77
2022/03/05 03:45:29;;;;;;;6.20;5.90;;;16.90;61.20;;;;;;5072863;28;44051;-77
2022/03/05 03:47:58;;;;;;;6.00;5.70;;;16.90;61.50;;;;;;5074313;28;44146;-77
2022/03/05 03:50:27;;;;;;;6.23;5.93;;;16.80;61.50;;;;;;5090484;28;44839;-77
2022/03/05 03:52:56;;;;;;;6.80;6.40;;;16.80;61.60;;;;;;5055113;28;43859;-77
2022/03/05 03:55:25;;;;;;;7.03;6.63;;;16.80;61.70;;;;;;5072205;28;43908;-77
2022/03/05 03:57:54;;;;;;;6.93;6.53;;;16.80;62.10;;;;;;5057559;28;43949;-77
2022/03/05 04:00:23;;;;;;;6.70;6.30;;;16.80;62.00;;;;;;5056266;28;45555;-77
2022/03/05 04:02:55;;;;;;;6.87;6.47;;;17.00;61.60;;;;;;5054778;28;44238;-77
2022/03/05 04:05:24;;;;;;;6.07;5.87;;;17.00;61.20;;;;;;5055685;28;43348;-78
2022/03/05 04:10:39;;;;;;;6.37;6.07;;;17.00;61.10;;;;;;5077655;28;44776;-78
2022/03/05 04:13:08;;;;;;;6.60;6.30;;;16.90;61.30;;;;;;5057411;28;44011;-77
2022/03/05 04:15:38;;;;;;;6.80;6.40;;;16.80;61.40;;;;;;5074056;28;44049;-78
2022/03/05 04:18:08;;;;;;;6.50;6.20;;;16.80;61.60;;;;;;5041119;28;43901;-76
2022/03/05 04:20:37;;;;;;;6.07;5.77;;;16.70;61.70;;;;;;5040261;28;44053;-76
2022/03/05 04:23:06;;;;;;;6.07;5.67;;;16.70;61.60;;;;;;5056640;28;43933;-75
2022/03/05 04:25:35;;;;;;;7.17;6.67;;;16.60;61.60;;;;;;5071860;28;44091;-78
2022/03/05 04:28:04;;;;;;;7.73;7.03;;;16.60;61.80;;;;;;5054970;28;43598;-75
2022/03/05 04:30:32;;;;;;;8.00;7.23;;;16.60;62.10;;;;;;5071794;27;43996;-76
2022/03/05 04:33:01;;;;;;;9.67;8.47;;;16.60;62.10;;;;;;5075612;28;44055;-78
2022/03/05 04:35:31;;;;;;;12.27;8.70;;;16.60;62.20;;;;;;5059657;28;44097;-77
2022/03/05 04:38:00;;;;;;;14.87;9.20;;;16.60;62.40;;;;;;5060267;28;43612;-76
2022/03/05 04:40:29;;;;;;;16.77;9.37;;;16.80;62.20;;;;;;5075790;28;43985;-77
2022/03/05 04:42:59;;;;;;;19.30;10.33;;;17.00;61.70;;;;;;5026710;28;43337;-76
2022/03/05 04:45:28;;;;;;;17.87;9.77;;;17.20;61.10;;;;;;5056366;28;43933;-76
2022/03/05 04:47:56;;;;;;;20.83;11.07;;;17.30;60.60;;;;;;5057197;28;43886;-76
2022/03/05 04:50:25;;;;;;;19.17;10.80;;;17.30;60.20;;;;;;5075430;28;43816;-76
2022/03/05 04:52:57;;;;;;;22.57;11.30;;;17.20;60.10;;;;;;5060208;28;43734;-76
2022/03/05 04:55:26;;;;;;;23.60;11.83;;;17.10;60.40;;;;;;5077392;28;44056;-77
2022/03/05 04:57:54;;;;;;;21.53;11.30;;;17.10;60.80;;;;;;5060954;28;43942;-77
2022/03/05 05:00:23;;;;;;;22.27;11.47;;;17.00;60.90;;;;;;5076036;28;46833;-76
2022/03/05 05:02:52;;;;;;;23.90;12.90;;;16.90;61.10;;;;;;5059718;28;44012;-77
2022/03/05 05:05:21;;;;;;;23.50;12.70;;;16.90;61.30;;;;;;5042574;28;44039;-77
2022/03/05 05:07:50;;;;;;;27.23;13.53;;;16.80;61.40;;;;;;5094935;28;43857;-76
2022/03/05 05:10:20;;;;;;;27.10;13.27;;;16.80;61.60;;;;;;5042458;28;44019;-76
2022/03/05 05:12:49;;;;;;;34.03;14.13;;;16.80;61.60;;;;;;5042361;28;43908;-76
2022/03/05 05:15:17;;;;;;;33.10;14.80;;;16.70;61.80;;;;;;5058623;28;44040;-76
2022/03/05 05:17:45;;;;;;;33.40;15.00;;;16.80;62.00;;;;;;5076066;28;43735;-76
2022/03/05 05:20:14;;;;;;;30.13;14.50;;;16.90;61.60;;;;;;5042164;28;44895;-77
2022/03/05 05:22:43;;;;;;;29.30;13.90;;;17.10;61.10;;;;;;5059061;28;44435;-77
2022/03/05 05:25:11;;;;;;;33.03;15.00;;;17.20;60.80;;;;;;5075051;28;43898;-77
2022/03/05 05:27:42;;;;;;;26.57;14.53;;;17.20;60.40;;;;;;5059928;28;44164;-77
2022/03/05 05:30:11;;;;;;;28.87;13.40;;;17.10;60.30;;;;;;5058690;28;44077;-77
2022/03/05 05:32:40;;;;;;;25.13;14.00;;;17.10;60.60;;;;;;5058779;28;43826;-76
2022/03/05 05:35:10;;;;;;;24.93;13.27;;;17.00;60.90;;;;;;5058568;28;43874;-77
2022/03/05 05:37:39;;;;;;;30.33;13.93;;;16.90;61.00;;;;;;5057299;28;43492;-77
2022/03/05 05:40:08;;;;;;;28.17;14.43;;;16.80;61.10;;;;;;5041572;28;43997;-76
2022/03/05 05:42:38;;;;;;;25.53;14.47;;;16.80;61.40;;;;;;5041530;28;43939;-77
2022/03/05 05:45:10;;;;;;;23.37;13.23;;;16.70;61.50;;;;;;5073386;28;44011;-77
2022/03/05 05:47:39;;;;;;;25.20;13.97;;;16.70;61.60;;;;;;5057619;28;43934;-77
2022/03/05 05:50:08;;;;;;;27.80;14.40;;;16.70;61.70;;;;;;5092081;28;43908;-77
2022/03/05 05:52:39;;;;;;;29.27;15.10;;;16.70;61.80;;;;;;5076219;28;45078;-77
2022/03/05 05:55:08;;;;;;;23.50;13.87;;;16.60;62.00;;;;;;5073448;28;43953;-77
2022/03/05 05:57:38;;;;;;;27.77;14.30;;;16.70;62.00;;;;;;5042652;28;43931;-77
2022/03/05 06:00:09;;;;;;;24.77;13.60;;;16.90;61.60;;;;;;5092749;28;43886;-77
2022/03/05 06:02:42;;;;;;;23.30;14.00;;;17.10;61.10;;;;;;5057182;28;43842;-77
2022/03/05 06:05:11;;;;;;;28.00;14.13;;;17.20;61.20;;;;;;5057552;28;44325;-77
2022/03/05 06:07:41;;;;;;;26.97;13.63;;;17.20;60.30;;;;;;5057329;28;43437;-77
2022/03/05 06:10:10;;;;;;;24.87;12.93;;;17.20;60.30;;;;;;5040082;28;44035;-77
2022/03/05 06:12:40;;;;;;;20.03;12.30;;;17.10;60.40;;;;;;5039744;28;44137;-77
2022/03/05 06:15:13;;;;;;;24.27;13.03;;;17.00;60.60;;;;;;5073436;28;43947;-77
2022/03/05 06:17:43;;;;;;;20.57;12.60;;;16.90;60.80;;;;;;5057522;28;43622;-77
2022/03/05 06:20:11;;;;;;;22.07;12.83;;;16.90;61.10;;;;;;5055648;28;44491;-77
2022/03/05 06:22:40;;;;;;;23.20;12.93;;;16.80;61.20;;;;;;5076088;28;44036;-77
2022/03/05 06:25:11;;;;;;;23.53;13.50;;;16.80;61.40;;;;;;5057998;28;43408;-77
2022/03/05 06:27:39;;;;;;;22.20;12.37;;;16.70;61.40;;;;;;5075577;28;43924;-77
2022/03/05 06:30:12;;;;;;;27.47;12.67;;;16.70;61.50;;;;;;5057284;28;43992;-77
2022/03/05 06:32:40;;;;;;;22.60;12.73;;;16.70;61.60;;;;;;5072934;28;43445;-77
2022/03/05 06:35:10;;;;;;;18.90;12.20;;;16.70;61.90;;;;;;5072516;28;43933;-77
2022/03/05 06:37:40;;;;;;;21.53;12.77;;;16.80;61.70;;;;;;5072860;28;43479;-77
2022/03/05 06:40:11;;;;;;;20.53;12.70;;;16.90;61.20;;;;;;5038092;28;44059;-77
2022/03/05 06:42:40;;;;;;;19.87;11.67;;;16.90;60.90;;;;;;5072611;28;44753;-77
2022/03/05 06:45:12;;;;;;;16.90;11.00;;;17.00;60.90;;;;;;5037793;28;44033;-77
2022/03/05 06:47:40;;;;;;;18.77;11.53;;;16.90;60.90;;;;;;5057413;28;43961;-77
2022/03/05 06:50:11;;;;;;;16.07;11.07;;;16.80;61.10;;;;;;5072062;28;44090;-77
2022/03/05 06:52:39;;;;;;;18.30;11.57;;;16.80;61.30;;;;;;5053687;28;43907;-77
2022/03/05 06:55:13;;;;;;;19.13;11.43;;;16.70;61.40;;;;;;5052168;28;44045;-77
2022/03/05 06:57:41;;;;;;;16.63;11.10;;;16.70;61.50;;;;;;5071526;28;43665;-77
2022/03/05 07:00:13;;;;;;;14.07;10.47;;;16.60;61.50;;;;;;5069824;28;44182;-77
2022/03/05 07:02:42;;;;;;;16.80;11.23;;;16.60;61.60;;;;;;5088188;28;44024;-77
2022/03/05 07:05:11;;;;;;;19.13;11.80;;;16.60;61.70;;;;;;5069976;28;43968;-77
2022/03/05 07:07:40;;;;;;;14.87;10.60;;;16.60;61.80;;;;;;5055287;28;44160;-76
2022/03/05 07:10:11;;;;;;;18.30;11.17;;;16.60;61.80;;;;;;5070966;28;45136;-77
2022/03/05 07:12:41;;;;;;;17.73;11.50;;;16.60;62.10;;;;;;5071775;28;44095;-77
2022/03/05 07:15:11;;;;;;;17.63;12.03;;;16.70;62.00;;;;;;5054008;28;44024;-77
2022/03/05 07:17:47;;;;;;;15.57;10.20;;;16.80;61.60;;;;;;5054914;28;43922;-77
2022/03/05 07:20:16;;;;;;;16.47;10.93;;;17.10;61.10;;;;;;5071115;28;43765;-77
2022/03/05 07:22:46;;;;;;;15.03;10.80;;;17.30;60.50;;;;;;5053587;28;44031;-77
2022/03/05 07:25:15;;;;;;;14.03;10.20;;;17.30;60.00;;;;;;5072583;28;43961;-77
2022/03/05 07:27:44;;;;;;;13.57;10.13;;;17.30;60.00;;;;;;5038168;28;43988;-77
2022/03/05 07:30:13;;;;;;;12.93;9.37;;;17.20;59.90;;;;;;5088055;28;44012;-77
2022/03/05 07:32:44;;;;;;;12.03;9.70;;;17.10;60.10;;;;;;5054708;28;44095;-77
2022/03/05 07:35:13;;;;;;;12.93;9.97;;;17.00;60.50;;;;;;5054886;28;44082;-77
2022/03/05 07:37:43;;;;;;;12.80;9.87;;;16.90;60.70;;;;;;5055181;28;44014;-77
2022/03/05 07:40:14;;;;;;;13.23;9.63;;;16.90;61.00;;;;;;5054269;28;44184;-77
2022/03/05 07:42:45;;;;;;;12.17;9.70;;;16.80;61.10;;;;;;5037759;28;44037;-77
2022/03/05 07:45:14;;;;;;;12.40;9.70;;;16.70;61.20;;;;;;5069708;28;44031;-77
2022/03/05 07:47:45;;;;;;;12.20;8.80;;;16.70;61.40;;;;;;5071758;28;44132;-77
2022/03/05 07:50:13;;;;;;;13.80;10.57;;;16.70;61.50;;;;;;5053981;28;44070;-77
2022/03/05 07:52:43;;;;;;;11.47;9.20;;;16.70;61.90;;;;;;5039531;28;43908;-77
2022/03/05 07:55:13;;;;;;;12.37;9.90;;;16.80;61.60;;;;;;5054681;28;44093;-77
2022/03/05 07:57:42;;;;;;;11.97;8.93;;;16.90;61.20;;;;;;5055616;28;43944;-78
2022/03/05 08:00:14;;;;;;;9.93;8.63;;;16.90;60.80;;;;;;5055347;28;44524;-77
2022/03/05 08:02:51;;;;;;;9.20;8.23;;;17.00;60.70;;;;;;5055961;28;44075;-76
2022/03/05 08:05:20;;;;;;;11.60;9.00;;;16.90;60.90;;;;;;5072454;28;43992;-76
2022/03/05 08:07:49;;;;;;;12.17;9.60;;;16.80;61.10;;;;;;5059685;28;43954;-76
2022/03/05 08:10:19;;;;;;;10.53;8.87;;;16.80;61.20;;;;;;5058290;28;43933;-76
2022/03/05 08:12:48;;;;;;;10.47;9.27;;;16.70;61.30;;;;;;5056774;28;44070;-76
2022/03/05 08:15:16;;;;;;;10.03;8.70;;;16.70;61.50;;;;;;5056619;28;43425;-76
2022/03/05 08:17:53;;;;;;;10.77;8.87;;;16.60;61.50;;;;;;5057374;28;43488;-77
2022/03/05 08:20:22;;;;;;;9.63;8.57;;;16.60;61.60;;;;;;5073470;28;43766;-77
2022/03/05 08:22:50;;;;;;;9.97;8.97;;;16.60;61.60;;;;;;5056858;28;44230;-76
2022/03/05 08:25:19;;;;;;;9.70;8.70;;;16.60;61.70;;;;;;5056666;28;43797;-76
2022/03/05 08:27:48;;;;;;;10.03;8.83;;;16.60;61.80;;;;;;5057623;28;44098;-76
2022/03/05 08:30:17;;;;;;;9.60;8.30;;;16.60;61.90;;;;;;5073996;28;43968;-76
2022/03/05 08:32:46;;;;;;;10.93;8.27;;;16.60;62.00;;;;;;5072779;28;43504;-76
2022/03/05 08:35:16;;;;;;;9.97;8.87;;;16.80;61.80;;;;;;5055704;28;43379;-76
2022/03/05 08:37:44;;;;;;;9.50;8.60;;;16.90;61.40;;;;;;5058994;28;43994;-76
2022/03/05 08:40:14;;;;;;;8.90;8.10;;;17.10;60.90;;;;;;5072825;28;43898;-76
2022/03/05 08:42:44;;;;;;;8.67;7.57;;;17.20;60.60;;;;;;5057037;28;43356;-76
2022/03/05 08:45:13;;;;;;;8.63;7.73;;;17.20;60.30;;;;;;5072926;28;43420;-76
2022/03/05 08:47:44;;;;;;;8.87;7.97;;;17.10;60.10;;;;;;5074487;28;43977;-76
2022/03/05 08:50:13;;;;;;;8.60;7.83;;;17.00;60.30;;;;;;5071962;28;44249;-76
2022/03/05 08:52:43;;;;;;;8.60;7.70;;;17.00;60.70;;;;;;5055217;28;43782;-76
2022/03/05 08:55:13;;;;;;;8.97;8.10;;;16.90;60.80;;;;;;5056059;28;43934;-76
2022/03/05 08:57:42;;;;;;;9.03;8.13;;;16.90;61.10;;;;;;5073621;28;44025;-76
2022/03/05 09:00:13;;;;;;;8.03;7.33;;;16.80;61.20;;;;;;5039136;28;44421;-76
2022/03/05 09:02:42;;;;;;;8.20;7.50;;;16.70;62.00;;;;;;5055807;28;44013;-76
2022/03/05 09:05:13;;;;;;;8.60;7.80;;;16.70;61.40;;;;;;5055617;28;43959;-76
2022/03/05 09:07:43;;;;;;;8.07;7.20;;;16.70;61.50;;;;;;5057753;28;43648;-76
2022/03/05 09:10:12;;;;;;;8.40;7.60;;;16.70;61.70;;;;;;5056488;28;44290;-76
2022/03/05 09:12:41;;;;;;;8.27;7.57;;;16.70;62.60;;;;;;5074249;28;43957;-76
2022/03/05 09:15:11;;;;;;;8.63;7.57;;;16.80;61.40;;;;;;5074367;28;43968;-76
2022/03/05 09:17:40;;;;;;;8.10;7.30;;;16.90;61.10;;;;;;5061903;28;44175;-76
2022/03/05 09:20:11;;;;;;;7.20;6.60;;;16.90;60.70;;;;;;5076787;28;44844;-76
2022/03/05 09:22:40;;;;;;;7.30;6.70;;;16.90;60.80;;;;;;5076626;28;43993;-77
2022/03/05 09:25:10;;;;;;;7.53;6.93;;;16.80;61.00;;;;;;5057826;28;43919;-76
2022/03/05 09:27:39;;;;;;;7.17;6.67;;;16.80;61.10;;;;;;5074987;28;43479;-76
2022/03/05 09:30:09;;;;;;;6.67;6.17;;;16.80;61.40;;;;;;5056841;28;43759;-76
2022/03/05 09:32:38;;;;;;;7.73;7.10;;;16.70;61.50;;;;;;5057408;28;44977;-76
2022/03/05 09:35:08;;;;;;;7.47;6.83;;;16.70;61.60;;;;;;5075050;28;43388;-76
2022/03/05 09:37:37;;;;;;;7.27;6.67;;;16.70;61.60;;;;;;5075262;28;44127;-76
2022/03/05 09:40:13;;;;;;;7.30;6.70;;;16.60;61.60;;;;;;5074312;28;45656;-76
2022/03/05 09:42:42;;;;;;;6.67;6.17;;;16.60;61.70;;;;;;5074882;28;45016;-76
2022/03/05 09:45:11;;;;;;;7.13;6.50;;;16.60;61.80;;;;;;5058151;28;43959;-76
2022/03/05 09:47:40;;;;;;;7.20;6.60;;;16.60;61.90;;;;;;5074919;28;43447;-76
2022/03/05 09:50:11;;;;;;;6.80;6.20;;;16.60;62.10;;;;;;5074312;28;44814;-76
2022/03/05 09:52:41;;;;;;;6.83;6.33;;;16.70;62.10;;;;;;5076192;28;44103;-77
2022/03/05 09:55:12;;;;;;;7.17;6.60;;;16.90;61.70;;;;;;5076379;28;43950;-76
2022/03/05 09:57:42;;;;;;;6.93;6.43;;;17.10;61.20;;;;;;5042061;28;44293;-76
2022/03/05 10:00:14;;;;;;;6.57;6.07;;;17.20;60.80;;;;;;5073657;28;44008;-76
2022/03/05 10:02:43;;;;;;;6.90;6.40;;;17.20;60.40;;;;;;5075432;28;44660;-76
2022/03/05 10:05:20;;;;;;;6.00;5.60;;;17.20;60.30;;;;;;5041265;28;43442;-76
2022/03/05 10:08:10;;;;;;;6.73;6.17;;;17.10;60.40;;;;;;5059421;28;44028;-76
2022/03/05 10:10:48;;;;;;;6.53;6.03;;;17.00;60.70;;;;;;5069957;28;43933;-76
2022/03/05 10:13:18;;;;;;;6.73;6.33;;;16.90;60.90;;;;;;5074428;28;44118;-76
2022/03/05 10:15:47;;;;;;;6.10;5.60;;;16.90;61.20;;;;;;5072138;28;43977;-76
2022/03/05 10:18:16;;;;;;;5.87;5.47;;;16.80;61.30;;;;;;5073247;28;43900;-76
2022/03/05 10:20:45;;;;;;;5.97;5.57;;;16.80;61.50;;;;;;5072810;28;44197;-76
2022/03/05 10:23:14;;;;;;;6.77;6.17;;;16.80;61.70;;;;;;5054816;28;44429;-76
2022/03/05 10:25:45;;;;;;;5.23;4.93;;;16.80;61.80;;;;;;5072958;28;44007;-76
2022/03/05 10:28:18;;;;;;;6.17;5.77;;;16.70;61.80;;;;;;5054863;27;44040;-76
2022/03/05 10:30:48;;;;;;;6.17;5.77;;;16.80;62.10;;;;;;5071609;28;43890;-75
2022/03/05 10:33:27;;;;;;;6.17;5.70;;;16.90;61.80;;;;;;5071454;28;43451;-77
2022/03/05 10:35:56;;;;;;;5.70;5.27;;;16.90;61.20;;;;;;5073420;28;43988;-76
2022/03/05 10:38:25;;;;;;;5.73;5.43;;;17.00;61.20;;;;;;5057956;28;43862;-76
2022/03/05 10:40:55;;;;;;;5.60;5.20;;;16.90;61.20;;;;;;5055654;28;43987;-77
2022/03/05 10:43:24;;;;;;;5.93;5.50;;;16.90;61.40;;;;;;5071080;28;43964;-77
2022/03/05 10:45:54;;;;;;;5.20;4.90;;;16.80;61.50;;;;;;5074138;28;44008;-76
2022/03/05 10:48:27;;;;;;;5.30;5.00;;;16.80;61.70;;;;;;5056506;28;44140;-76
2022/03/05 10:50:56;;;;;;;5.27;4.97;;;16.80;61.80;;;;;;5073404;28;45011;-77
2022/03/05 10:53:40;;;;;;;5.40;5.10;;;16.80;62.00;;;;;;5055178;28;43353;-76
2022/03/05 10:56:27;;;;;;;5.17;4.87;;;16.80;62.00;;;;;;5070225;28;43862;-76
2022/03/05 10:59:03;;;;;;;5.53;5.13;;;16.70;62.00;;;;;;5070336;28;44182;-77
2022/03/05 11:01:32;;;;;;;4.63;4.40;;;16.70;62.10;;;;;;5038228;28;44411;-77
2022/03/05 11:04:01;;;;;;;4.93;4.63;;;16.70;62.10;;;;;;5054643;28;44555;-77
2022/03/05 11:06:31;;;;;;;4.80;4.60;;;16.70;62.20;;;;;;5055022;28;43838;-75
2022/03/05 11:08:59;;;;;;;5.83;5.33;;;16.70;62.40;;;;;;5039183;28;43968;-75
2022/03/05 11:11:29;;;;;;;4.87;4.57;;;16.90;62.20;;;;;;5037552;28;45076;-76
2022/03/05 11:13:58;;;;;;;4.60;4.40;;;17.00;61.80;;;;;;5054407;28;44088;-75
2022/03/05 11:16:27;;;;;;;4.67;4.47;;;17.20;61.40;;;;;;5037017;28;44122;-77
2022/03/05 11:18:56;;;;;;;4.87;4.57;;;17.30;60.90;;;;;;5088938;28;43898;-75
2022/03/05 11:21:28;;;;;;;4.80;4.60;;;17.30;60.60;;;;;;5036285;28;43940;-77
2022/03/05 11:23:57;;;;;;;4.43;4.23;;;17.30;60.70;;;;;;5038945;28;43856;-76
2022/03/05 11:26:25;;;;;;;4.30;4.10;;;17.20;60.90;;;;;;5068805;28;44069;-76
2022/03/05 11:29:12;;;;;;;4.80;4.50;;;17.10;61.10;;;;;;5058587;28;44297;-75
2022/03/05 11:31:40;;;;;;;4.70;4.40;;;17.10;61.40;;;;;;5053866;28;44674;-76
2022/03/05 11:34:13;;;;;;;4.33;4.13;;;17.00;61.50;;;;;;5051794;28;44020;-77
2022/03/05 11:36:42;;;;;;;4.37;4.17;;;17.00;61.70;;;;;;5051571;28;43930;-77
2022/03/05 11:39:14;;;;;;;4.37;4.17;;;16.90;61.70;;;;;;5051914;28;43636;-77
2022/03/05 11:41:55;;;;;;;4.60;4.40;;;16.90;61.80;;;;;;5052029;28;44021;-76
2022/03/05 11:44:28;;;;;;;4.50;4.30;;;16.90;61.90;;;;;;5070451;28;43975;-76
2022/03/05 11:47:27;;;;;;;3.90;3.80;;;16.90;62.00;;;;;;5070603;28;44095;-76
2022/03/05 11:50:16;;;;;;;4.20;4.10;;;16.90;62.00;;;;;;5090422;28;43920;-76
2022/03/05 11:53:15;;;;;;;3.73;3.63;;;17.00;61.50;;;;;;5069043;28;44371;-76
2022/03/05 11:55:45;;;;;;;3.93;3.83;;;17.10;61.30;;;;;;5053450;28;44062;-76
2022/03/05 11:58:28;;;;;;;4.10;3.90;;;17.10;61.40;;;;;;5055307;28;43930;-77
2022/03/05 12:00:59;;;;;;;4.20;3.97;;;17.00;61.60;;;;;;5057238;28;43602;-77
2022/03/05 12:03:38;;;;;;;3.80;3.60;;;17.00;61.60;;;;;;5072115;28;45145;-77
2022/03/05 12:06:08;;;;;;;3.47;3.37;;;16.90;61.80;;;;;;5074309;28;44448;-77
2022/03/05 12:08:52;;;;;;;3.63;3.43;;;16.90;62.00;;;;;;5055024;28;44006;-76
2022/03/05 12:11:22;;;;;;;3.60;3.50;;;16.90;62.80;;;;;;5072462;28;44004;-75
2022/03/05 12:13:55;;;;;;;3.80;3.70;;;16.80;62.10;;;;;;5077226;28;43996;-77
2022/03/05 12:16:26;;;;;;;3.70;3.60;;;16.80;62.10;;;;;;5075668;28;43898;-76
2022/03/05 12:18:57;;;;;;;4.13;3.93;;;16.80;62.20;;;;;;5069090;28;44039;-75
2022/03/05 12:21:26;;;;;;;3.83;3.73;;;16.80;62.30;;;;;;5051749;28;43965;-75
2022/03/05 12:23:59;;;;;;;3.33;3.23;;;16.80;62.40;;;;;;5051716;28;44370;-74
2022/03/05 12:26:35;;;;;;;3.80;3.70;;;16.80;62.40;;;;;;5034802;28;44085;-75
2022/03/05 12:29:04;;;;;;;3.10;3.00;;;16.90;62.20;;;;;;5067704;28;44090;-76
2022/03/05 12:31:34;;;;;;;3.60;3.50;;;17.10;61.80;;;;;;5068291;28;44068;-74
2022/03/05 12:34:03;;;;;;;3.40;3.30;;;17.20;61.30;;;;;;5052169;28;43886;-75
2022/03/05 12:36:31;;;;;;;3.37;3.17;;;17.30;60.90;;;;;;5051812;28;44606;-74
2022/03/05 12:39:01;;;;;;;3.13;3.03;;;17.30;60.70;;;;;;5052686;28;43998;-76
2022/03/05 12:41:29;;;;;;;3.00;2.90;;;17.30;60.90;;;;;;5052372;28;43437;-76
2022/03/05 12:43:58;;;;;;;3.27;3.17;;;17.20;61.10;;;;;;5090462;28;43753;-76
2022/03/05 12:46:28;;;;;;;3.37;3.27;;;17.10;62.00;;;;;;5054392;28;43388;-75
2022/03/05 12:49:07;;;;;;;3.33;3.23;;;17.10;61.50;;;;;;5087356;28;44326;-76
2022/03/05 12:51:36;;;;;;;3.03;2.93;;;17.00;61.60;;;;;;5076294;27;43837;-75
2022/03/05 12:54:06;;;;;;;3.17;3.07;;;17.00;61.80;;;;;;5076052;28;43894;-76
2022/03/05 12:56:37;;;;;;;3.10;3.00;;;17.00;61.90;;;;;;5060546;28;43943;-76
2022/03/05 12:59:07;;;;;;;3.30;3.20;;;16.90;62.60;;;;;;5074144;28;44058;-75